Aérodrome :
LOGIN :

S'inscrire | Disclaimer

   EN    FR    IT 

 










Légende :    VFR   VFR Marginal   IFR   IFR Intensif   IFR Très Intensif
Visi : 
Plafond : 
>= 8 km
>= 3000ft
5 à 8 km
1000 à 3000 ft
1500m à 5 km
500 à 1000 ft
800 à 1500m
200 à 500 ft
< 800m
< 200 ft
Symboles :   Orages  Brouillard  Fortes neiges  Fortes précipitations  Vent > 20 kt
SIGMETs :   Divers  Orages  Givrage  Turbulence  Onde Orograph.  Cendres Volcan.






- Altitude de l'aérodrome : 11 ft
- Code IATA : MJV


LELC - Murcia San Javier

DERNIER METAR :
  • 162300Z AUTO 28010KT 9999 NCD 11/M01 Q1016

METARs EXPIRÉS :
  • 162230Z AUTO 24008KT 9000 NCD 12/M01 Q1016
  • 162200Z AUTO 24006KT 190V280 9000 NCD 11/M00 Q1016
  • 162130Z AUTO 24006KT 9000 NCD 09/00 Q1016
  • 162100Z AUTO 27005KT 9999 NCD 10/00 Q1016

TAF TAF LELC
Valide du 17 à 00h jusqu'au 18 à 00h UTC


162300Z 1700/1724 23005KT CAVOK TX17/1714Z TN05/1707Z



MET'MAP, la Météo Aéronautique d'un coup d'oeil ! - Copyright ORBIFLY Décembre 2007 - Disclaimer

ORBIFLY MET'MAP TEAM :

Programmation & Développement : Alexandra Zaïnal
Conception & Développement : Baudouin d'Aumeries
Co-Programmation & Développement : Marc-Olivier Méhu
Soutien technique & logistique : Manuel Goepfert

Contact : metmap@orbifly.com




SOURCES & CREDITS :

   NOAA